createdAt,value
2019-04-06T00:00:43.646Z,8.70
2019-04-06T00:03:12.966Z,8.70
2019-04-06T00:05:42.272Z,8.80
2019-04-06T00:08:11.778Z,8.70
2019-04-06T00:10:41.326Z,8.70
2019-04-06T00:13:10.793Z,8.60
2019-04-06T00:15:40.117Z,8.60
2019-04-06T00:18:09.611Z,8.60
2019-04-06T00:20:38.941Z,8.60
2019-04-06T00:23:08.392Z,8.70
2019-04-06T00:25:44.272Z,8.80
2019-04-06T00:28:09.218Z,8.90
2019-04-06T00:30:49.953Z,8.90
2019-04-06T00:33:20.271Z,8.90
2019-04-06T00:35:49.664Z,8.90
2019-04-06T00:38:19.037Z,8.90
2019-04-06T00:40:48.337Z,9.00
2019-04-06T00:43:17.657Z,9.00
2019-04-06T00:45:47.028Z,8.90
2019-04-06T00:48:16.398Z,8.80
2019-04-06T00:50:45.719Z,8.90
2019-04-06T00:53:15.099Z,8.90
2019-04-06T00:55:54.828Z,8.90
2019-04-06T00:58:15.459Z,8.90
2019-04-06T01:00:44.745Z,8.80
2019-04-06T01:03:14.371Z,8.70
2019-04-06T01:05:43.895Z,8.80
2019-04-06T01:08:13.377Z,8.80
2019-04-06T01:10:42.720Z,8.90
2019-04-06T01:13:12.057Z,8.70
2019-04-06T01:15:41.395Z,8.70
2019-04-06T01:18:10.744Z,8.70
2019-04-06T01:20:40.280Z,8.70
2019-04-06T01:23:09.752Z,8.60
2019-04-06T01:25:45.243Z,8.60
2019-04-06T01:28:14.699Z,8.60
2019-04-06T01:30:44.096Z,8.50
2019-04-06T01:33:13.450Z,8.60
2019-04-06T01:35:42.772Z,8.60
2019-04-06T01:38:12.112Z,8.60
2019-04-06T01:40:41.711Z,8.60
2019-04-06T01:43:11.016Z,8.60
2019-04-06T01:45:40.332Z,8.60
2019-04-06T01:48:09.733Z,8.60
2019-04-06T01:50:43.700Z,8.60
2019-04-06T01:53:13.003Z,8.60
2019-04-06T01:55:42.352Z,8.60
2019-04-06T01:58:11.733Z,8.60
2019-04-06T02:00:44.569Z,8.60
2019-04-06T02:03:14.037Z,8.60
2019-04-06T02:05:43.549Z,8.70
2019-04-06T02:08:12.900Z,8.70
2019-04-06T02:10:42.245Z,8.70
2019-04-06T02:13:11.618Z,8.60
2019-04-06T02:15:40.923Z,8.60
2019-04-06T02:18:10.256Z,8.60
2019-04-06T02:20:39.554Z,8.50
2019-04-06T02:23:08.952Z,8.50
2019-04-06T02:25:39.177Z,8.50
2019-04-06T02:28:08.802Z,8.50
2019-04-06T02:30:41.753Z,8.50
2019-04-06T02:33:28.057Z,8.40
2019-04-06T02:36:13.615Z,8.50
2019-04-06T02:39:14.360Z,8.50
2019-04-06T02:42:05.570Z,8.40
2019-04-06T02:44:34.889Z,8.40
2019-04-06T02:47:23.306Z,8.40
2019-04-06T02:49:52.666Z,8.40
2019-04-06T02:52:21.969Z,8.40
2019-04-06T02:54:51.325Z,8.40
2019-04-06T02:57:20.624Z,8.40
2019-04-06T02:59:49.951Z,8.40
2019-04-06T03:02:19.522Z,8.40
2019-04-06T03:04:48.965Z,8.40
2019-04-06T03:07:18.348Z,8.40
2019-04-06T03:10:07.018Z,8.30
2019-04-06T03:12:36.412Z,8.30
2019-04-06T03:15:06.152Z,8.40
2019-04-06T03:17:35.513Z,8.40
2019-04-06T03:20:05.365Z,8.50
2019-04-06T03:22:35.284Z,8.50
2019-04-06T03:25:04.781Z,8.50
2019-04-06T03:27:53.160Z,8.50
2019-04-06T03:30:22.594Z,8.50
2019-04-06T03:32:51.974Z,8.60
2019-04-06T03:35:22.087Z,8.60
2019-04-06T03:37:51.775Z,8.50
2019-04-06T03:40:21.231Z,8.50
2019-04-06T03:42:50.540Z,8.40
2019-04-06T03:45:19.910Z,8.40
2019-04-06T03:47:49.337Z,8.30
2019-04-06T03:50:19.049Z,8.30
2019-04-06T03:52:48.501Z,8.40
2019-04-06T03:55:17.772Z,8.40
2019-04-06T03:57:47.047Z,8.40
2019-04-06T04:00:16.820Z,8.40
2019-04-06T04:02:46.203Z,8.40
2019-04-06T04:05:15.489Z,8.40
2019-04-06T04:07:44.787Z,8.50
2019-04-06T04:10:35.543Z,8.50
2019-04-06T04:13:05.118Z,8.40
2019-04-06T04:15:34.590Z,8.30
2019-04-06T04:18:04.768Z,8.20
2019-04-06T04:20:34.007Z,8.30
2019-04-06T04:23:03.338Z,8.30
2019-04-06T04:25:32.635Z,8.20
2019-04-06T04:28:02.025Z,8.20
2019-04-06T04:30:33.664Z,8.20
2019-04-06T04:33:02.178Z,8.20
2019-04-06T04:35:31.531Z,8.20
2019-04-06T04:38:00.973Z,8.20
2019-04-06T04:40:30.243Z,8.20
2019-04-06T04:43:00.126Z,8.20
2019-04-06T04:45:29.423Z,8.20
2019-04-06T04:47:58.693Z,8.20
2019-04-06T04:50:28.060Z,8.20
2019-04-06T04:52:57.436Z,8.20
2019-04-06T04:55:26.735Z,8.20
2019-04-06T04:57:56.032Z,8.20
2019-04-06T05:00:25.387Z,8.20
2019-04-06T05:02:54.696Z,8.20
2019-04-06T05:05:24.071Z,8.20
2019-04-06T05:07:53.371Z,8.20
2019-04-06T05:10:22.643Z,8.30
2019-04-06T05:12:51.903Z,8.30
2019-04-06T05:15:34.858Z,8.30
2019-04-06T05:18:04.163Z,8.40
2019-04-06T05:20:33.650Z,8.30
2019-04-06T05:23:03.035Z,8.30
2019-04-06T05:25:51.481Z,8.30
2019-04-06T05:28:20.792Z,8.30
2019-04-06T05:30:50.392Z,8.40
2019-04-06T05:33:19.721Z,8.30
2019-04-06T05:35:49.103Z,8.30
2019-04-06T05:38:18.310Z,8.30
2019-04-06T05:40:47.592Z,8.30
2019-04-06T05:43:16.866Z,8.40
2019-04-06T05:45:46.111Z,8.40
2019-04-06T05:48:15.707Z,8.40
2019-04-06T05:50:45.198Z,8.50
2019-04-06T05:53:14.617Z,8.50
2019-04-06T05:55:44.038Z,8.50
2019-04-06T05:58:13.425Z,8.50
2019-04-06T06:00:42.695Z,8.50
2019-04-06T06:03:11.937Z,8.50
2019-04-06T06:05:41.328Z,8.50
2019-04-06T06:08:10.752Z,8.60
2019-04-06T06:10:39.999Z,8.60
2019-04-06T06:13:09.294Z,8.60
2019-04-06T06:15:38.695Z,8.60
2019-04-06T06:18:08.151Z,8.60
2019-04-06T06:20:37.447Z,8.60
2019-04-06T06:23:06.696Z,8.60
2019-04-06T06:25:36.271Z,8.80
2019-04-06T06:28:14.140Z,9.00
2019-04-06T06:30:36.725Z,8.90
2019-04-06T06:33:06.072Z,8.80
2019-04-06T06:35:35.380Z,8.80
2019-04-06T06:38:04.815Z,9.00
2019-04-06T06:40:34.321Z,8.90
2019-04-06T06:43:03.739Z,8.90
2019-04-06T06:45:33.030Z,8.90
2019-04-06T06:48:02.397Z,9.00
2019-04-06T06:50:31.630Z,9.10
2019-04-06T06:53:00.973Z,9.30
2019-04-06T06:55:30.670Z,9.10
2019-04-06T06:58:00.227Z,9.00
2019-04-06T07:00:29.708Z,9.00
2019-04-06T07:02:59.048Z,9.00
2019-04-06T07:05:28.451Z,9.00
2019-04-06T07:07:57.667Z,8.90
2019-04-06T07:10:27.174Z,9.00
2019-04-06T07:12:56.465Z,9.20
2019-04-06T07:15:25.804Z,9.20
2019-04-06T07:17:55.122Z,9.30
2019-04-06T07:20:24.772Z,9.40
2019-04-06T07:22:54.098Z,9.60
2019-04-06T07:25:23.744Z,9.70
2019-04-06T07:27:53.403Z,9.70
2019-04-06T07:30:22.658Z,9.60
2019-04-06T07:32:51.968Z,9.80
2019-04-06T07:35:21.312Z,9.80
2019-04-06T07:37:50.626Z,9.90
2019-04-06T07:40:20.270Z,9.80
2019-04-06T07:42:49.798Z,10.10
2019-04-06T07:45:19.123Z,10.00
2019-04-06T07:47:48.430Z,10.20
2019-04-06T07:50:17.850Z,10.00
2019-04-06T07:52:47.188Z,10.40
2019-04-06T07:55:16.585Z,10.40
2019-04-06T07:57:45.872Z,10.40
2019-04-06T08:00:15.571Z,10.50
2019-04-06T08:02:44.913Z,10.50
2019-04-06T08:05:14.580Z,10.30
2019-04-06T08:07:43.847Z,10.30
2019-04-06T08:10:13.435Z,10.50
2019-04-06T08:12:42.815Z,10.80
2019-04-06T08:15:12.389Z,11.10
2019-04-06T08:17:41.759Z,11.10
2019-04-06T08:20:11.094Z,10.80
2019-04-06T08:22:40.481Z,10.90
2019-04-06T08:25:10.164Z,10.80
2019-04-06T08:27:39.869Z,11.00
2019-04-06T08:30:13.281Z,11.00
2019-04-06T08:32:42.743Z,10.90
2019-04-06T08:35:24.151Z,11.10
2019-04-06T08:37:44.099Z,11.10
2019-04-06T08:40:13.591Z,11.10
2019-04-06T08:42:43.079Z,11.20
2019-04-06T08:45:13.819Z,11.70
2019-04-06T08:47:43.576Z,12.00
2019-04-06T08:50:13.158Z,12.00
2019-04-06T08:52:42.478Z,11.70
2019-04-06T08:55:11.837Z,11.80
2019-04-06T08:57:41.129Z,11.70
2019-04-06T09:00:10.538Z,12.20
2019-04-06T09:02:39.792Z,12.40
2019-04-06T09:05:09.246Z,12.10
2019-04-06T09:07:40.707Z,12.10
2019-04-06T09:10:10.070Z,12.20
2019-04-06T09:12:39.399Z,12.40
2019-04-06T09:15:09.470Z,12.60
2019-04-06T09:17:38.752Z,12.90
2019-04-06T09:20:09.366Z,12.70
2019-04-06T09:22:38.907Z,13.20
2019-04-06T09:25:08.346Z,13.70
2019-04-06T09:27:38.101Z,14.00
2019-04-06T09:30:08.104Z,13.20
2019-04-06T09:32:37.442Z,13.10
2019-04-06T09:35:09.783Z,13.20
2019-04-06T09:37:39.145Z,13.70
2019-04-06T09:40:08.604Z,14.00
2019-04-06T09:42:37.906Z,14.00
2019-04-06T09:45:29.347Z,14.40
2019-04-06T09:48:14.324Z,14.00
2019-04-06T09:51:05.454Z,14.00
2019-04-06T09:54:06.354Z,14.80
2019-04-06T09:56:47.428Z,15.50
2019-04-06T09:59:41.640Z,14.90
2019-04-06T10:02:18.182Z,15.20
2019-04-06T10:05:05.552Z,16.30
2019-04-06T10:07:56.948Z,16.40
2019-04-06T10:10:51.023Z,15.00
2019-04-06T10:13:38.116Z,14.40
2019-04-06T10:16:32.184Z,13.80
2019-04-06T10:19:12.366Z,14.10
2019-04-06T10:21:59.641Z,14.20
2019-04-06T10:24:39.398Z,13.60
2019-04-06T10:27:40.120Z,13.50
2019-04-06T10:30:31.849Z,13.40
2019-04-06T10:33:26.309Z,13.10
2019-04-06T10:36:14.683Z,13.20
2019-04-06T10:39:21.665Z,13.30
2019-04-06T10:42:08.772Z,13.30
2019-04-06T10:45:09.496Z,13.60
2019-04-06T10:48:00.911Z,13.10
2019-04-06T10:51:01.409Z,13.10
2019-04-06T10:54:24.350Z,13.70
2019-04-06T10:57:25.373Z,14.00
2019-04-06T11:00:23.066Z,14.20
2019-04-06T11:03:04.000Z,14.60
2019-04-06T11:05:54.595Z,14.10
2019-04-06T11:08:55.150Z,14.00
2019-04-06T11:11:42.193Z,14.00
2019-04-06T11:14:30.511Z,13.90
2019-04-06T11:17:17.769Z,14.40
2019-04-06T11:19:58.659Z,14.00
2019-04-06T11:22:45.113Z,14.10
2019-04-06T11:25:33.415Z,14.00
2019-04-06T11:28:30.702Z,14.30
2019-04-06T11:31:12.147Z,14.80
2019-04-06T11:33:58.164Z,14.90
2019-04-06T11:36:52.513Z,14.70
2019-04-06T11:39:38.102Z,14.20
2019-04-06T11:42:22.397Z,14.50
2019-04-06T11:45:16.786Z,14.60
2019-04-06T11:47:53.037Z,15.00
2019-04-06T11:50:41.446Z,15.10
2019-04-06T11:53:39.023Z,15.10
2019-04-06T11:56:33.416Z,15.30
2019-04-06T11:59:30.765Z,15.10
2019-04-06T12:02:17.723Z,15.10
2019-04-06T12:05:15.326Z,15.30
2019-04-06T12:07:54.749Z,15.30
2019-04-06T12:10:32.141Z,15.50
2019-04-06T12:13:19.329Z,15.50
2019-04-06T12:15:55.963Z,15.00
2019-04-06T12:18:47.356Z,14.60
2019-04-06T12:21:43.451Z,14.60
2019-04-06T12:24:50.239Z,14.70
2019-04-06T12:27:37.673Z,14.90
2019-04-06T12:30:37.975Z,14.60
2019-04-06T12:33:28.492Z,14.80
2019-04-06T12:36:32.595Z,14.70
2019-04-06T12:39:20.344Z,14.70
2019-04-06T12:42:01.740Z,15.20
2019-04-06T12:44:45.015Z,15.00
2019-04-06T12:47:31.288Z,14.90
2019-04-06T12:50:18.399Z,14.70
2019-04-06T12:53:07.070Z,14.50
2019-04-06T12:56:02.314Z,14.70
2019-04-06T12:59:04.299Z,14.90
2019-04-06T13:01:51.379Z,15.10
2019-04-06T13:04:38.587Z,15.10
2019-04-06T13:07:36.344Z,15.40
2019-04-06T13:10:34.274Z,15.20
2019-04-06T13:13:24.504Z,15.10
2019-04-06T13:16:06.800Z,15.20
2019-04-06T13:18:44.332Z,15.50
2019-04-06T13:21:39.030Z,15.70
2019-04-06T13:24:27.620Z,15.80
2019-04-06T13:27:22.059Z,15.70
2019-04-06T13:30:10.750Z,15.90
2019-04-06T13:32:57.551Z,15.90
2019-04-06T13:35:48.934Z,16.00
2019-04-06T13:38:27.703Z,15.90
2019-04-06T13:41:11.198Z,15.80
2019-04-06T13:43:57.324Z,15.80
2019-04-06T13:46:44.409Z,15.80
2019-04-06T13:49:38.729Z,16.00
2019-04-06T13:52:20.704Z,15.80
2019-04-06T13:55:14.828Z,15.70
2019-04-06T13:58:21.266Z,15.80
2019-04-06T14:01:15.983Z,16.00
2019-04-06T14:03:57.221Z,16.20
2019-04-06T14:06:58.000Z,16.10
2019-04-06T14:09:39.327Z,16.00
2019-04-06T14:12:33.563Z,16.10
2019-04-06T14:15:28.201Z,16.20
2019-04-06T14:18:28.539Z,16.10
2019-04-06T14:21:32.075Z,16.00
2019-04-06T14:24:19.524Z,15.80
2019-04-06T14:27:06.598Z,16.00
2019-04-06T14:29:48.773Z,16.10
2019-04-06T14:32:36.036Z,16.30
2019-04-06T14:35:14.778Z,16.40
2019-04-06T14:38:18.244Z,16.20
2019-04-06T14:41:01.199Z,16.20
2019-04-06T14:43:49.458Z,16.10
2019-04-06T14:46:28.890Z,16.10
2019-04-06T14:49:28.963Z,16.10
2019-04-06T14:52:13.326Z,16.00
2019-04-06T14:55:02.452Z,16.00
2019-04-06T14:57:49.696Z,16.10
2019-04-06T15:00:31.648Z,16.20
2019-04-06T15:03:18.589Z,16.60
2019-04-06T15:06:09.949Z,16.80
2019-04-06T15:08:55.977Z,17.00
2019-04-06T15:11:47.064Z,17.20
2019-04-06T15:14:41.604Z,17.10
2019-04-06T15:17:20.164Z,16.80
2019-04-06T15:20:08.532Z,16.70
2019-04-06T15:22:48.183Z,16.70
2019-04-06T15:25:24.819Z,16.60
2019-04-06T15:28:17.270Z,16.60
2019-04-06T15:31:20.794Z,16.40
2019-04-06T15:34:07.635Z,16.10
2019-04-06T15:37:12.242Z,16.00
2019-04-06T15:40:00.049Z,15.80
2019-04-06T15:42:37.489Z,15.90
2019-04-06T15:45:24.646Z,15.80
2019-04-06T15:48:36.520Z,15.90
2019-04-06T15:51:23.629Z,15.80
2019-04-06T15:54:15.076Z,15.70
2019-04-06T15:57:22.101Z,15.60
2019-04-06T16:00:10.518Z,15.60
2019-04-06T16:03:02.278Z,15.80
2019-04-06T16:05:38.963Z,15.80
2019-04-06T16:08:42.402Z,15.80
2019-04-06T16:11:18.434Z,15.80
2019-04-06T16:14:21.898Z,15.80
2019-04-06T16:17:23.934Z,15.80
2019-04-06T16:20:14.988Z,15.80
2019-04-06T16:22:52.446Z,15.70
2019-04-06T16:25:31.462Z,15.60
2019-04-06T16:28:09.422Z,15.60
2019-04-06T16:30:57.831Z,15.50
2019-04-06T16:33:46.185Z,15.50
2019-04-06T16:36:37.313Z,15.50
2019-04-06T16:39:25.544Z,15.60
2019-04-06T16:42:17.664Z,15.50
2019-04-06T16:44:56.428Z,15.60
2019-04-06T16:47:44.720Z,15.60
2019-04-06T16:50:33.510Z,15.40
2019-04-06T16:53:17.852Z,15.50
2019-04-06T16:56:06.119Z,15.40
2019-04-06T16:58:49.073Z,15.40
2019-04-06T17:01:36.823Z,15.40
2019-04-06T17:04:28.475Z,15.20
2019-04-06T17:07:04.245Z,15.10
2019-04-06T17:09:40.260Z,15.10
2019-04-06T17:12:30.607Z,15.10
2019-04-06T17:15:05.311Z,15.00
2019-04-06T17:18:18.864Z,15.10
2019-04-06T17:21:22.882Z,15.10
2019-04-06T17:24:10.531Z,15.00
2019-04-06T17:27:08.048Z,15.00
2019-04-06T17:29:44.236Z,15.00
2019-04-06T17:32:38.242Z,15.00
2019-04-06T17:35:27.531Z,14.90
2019-04-06T17:38:07.833Z,14.90
2019-04-06T17:40:59.180Z,14.80
2019-04-06T17:43:41.542Z,14.80
2019-04-06T17:46:25.140Z,14.70
2019-04-06T17:49:24.186Z,14.70
2019-04-06T17:52:24.611Z,14.60
2019-04-06T17:55:13.436Z,14.60
2019-04-06T17:57:51.197Z,14.50
2019-04-06T18:03:26.358Z,14.40
2019-04-06T18:06:15.222Z,14.30
2019-04-06T18:09:09.495Z,14.30
2019-04-06T18:11:47.094Z,14.20
2019-04-06T18:14:18.481Z,14.20
2019-04-06T18:16:47.719Z,14.10
2019-04-06T18:19:16.996Z,14.00
2019-04-06T18:21:46.339Z,14.00
2019-04-06T18:24:15.784Z,13.90
2019-04-06T18:26:45.198Z,13.90
2019-04-06T18:29:14.505Z,13.80
2019-04-06T18:31:58.524Z,13.80
2019-04-06T18:34:27.860Z,13.80
2019-04-06T18:37:25.673Z,13.70
2019-04-06T18:39:55.790Z,13.70
2019-04-06T18:42:25.173Z,13.70
2019-04-06T18:44:54.604Z,13.60
2019-04-06T18:47:24.200Z,13.60
2019-04-06T18:49:53.617Z,13.50
2019-04-06T18:52:23.505Z,13.50
2019-04-06T18:54:53.194Z,13.40
2019-04-06T18:57:22.809Z,13.50
2019-04-06T18:59:52.651Z,13.40
2019-04-06T19:02:22.524Z,13.40
2019-04-06T19:04:52.027Z,13.30
2019-04-06T19:07:21.409Z,13.30
2019-04-06T19:09:51.001Z,13.30
2019-04-06T19:12:20.413Z,13.30
2019-04-06T19:14:50.126Z,13.30
2019-04-06T19:17:38.511Z,13.30
2019-04-06T19:20:08.309Z,13.30
2019-04-06T19:22:37.709Z,13.20
2019-04-06T19:25:08.227Z,13.20
2019-04-06T19:27:37.828Z,13.20
2019-04-06T19:30:08.821Z,13.10
2019-04-06T19:32:38.143Z,13.20
2019-04-06T19:35:08.936Z,13.10
2019-04-06T19:37:38.547Z,13.10
2019-04-06T19:40:08.422Z,13.10
2019-04-06T19:42:37.907Z,13.00
2019-04-06T19:45:07.630Z,13.00
2019-04-06T19:47:37.061Z,12.90
2019-04-06T19:50:25.949Z,12.90
2019-04-06T19:52:56.723Z,12.90
2019-04-06T19:55:26.063Z,12.80
2019-04-06T19:57:55.917Z,12.80
2019-04-06T20:00:25.873Z,12.80
2019-04-06T20:02:55.295Z,12.80
2019-04-06T20:05:25.153Z,12.80
2019-04-06T20:07:55.714Z,12.80
2019-04-06T20:10:26.301Z,12.80
2019-04-06T20:12:55.814Z,12.80
2019-04-06T20:15:25.527Z,12.80
2019-04-06T20:17:56.465Z,12.80
2019-04-06T20:20:25.954Z,12.80
2019-04-06T20:22:55.422Z,12.80
2019-04-06T20:25:43.728Z,12.80
2019-04-06T20:28:13.322Z,12.80
2019-04-06T20:30:43.065Z,12.90
2019-04-06T20:33:21.493Z,12.90
2019-04-06T20:35:51.223Z,12.90
2019-04-06T20:38:20.849Z,12.90
2019-04-06T20:40:50.276Z,12.90
2019-04-06T20:43:19.820Z,12.90
2019-04-06T20:45:49.190Z,12.80
2019-04-06T20:48:18.444Z,12.80
2019-04-06T20:50:47.660Z,12.80
2019-04-06T20:53:16.984Z,12.80
2019-04-06T20:55:46.557Z,12.80
2019-04-06T20:58:16.080Z,12.80
2019-04-06T21:00:45.598Z,12.80
2019-04-06T21:03:15.196Z,12.80
2019-04-06T21:05:44.654Z,12.80
2019-04-06T21:08:14.438Z,12.80
2019-04-06T21:10:44.075Z,12.80
2019-04-06T21:13:13.371Z,12.80
2019-04-06T21:15:43.479Z,12.80
2019-04-06T21:18:12.876Z,12.70
2019-04-06T21:20:42.381Z,12.70
2019-04-06T21:23:11.805Z,12.70
2019-04-06T21:25:41.750Z,12.70
2019-04-06T21:28:11.147Z,12.60
2019-04-06T21:30:41.082Z,12.60
2019-04-06T21:33:11.058Z,12.50
2019-04-06T21:35:40.381Z,12.50
2019-04-06T21:38:10.450Z,12.50
2019-04-06T21:40:39.895Z,12.40
2019-04-06T21:43:09.218Z,12.40
2019-04-06T21:45:38.697Z,12.40
2019-04-06T21:48:08.593Z,12.40
2019-04-06T21:50:37.895Z,12.40
2019-04-06T21:53:07.129Z,12.40
2019-04-06T21:56:01.009Z,12.50
2019-04-06T21:58:23.237Z,12.40
2019-04-06T22:00:55.209Z,12.50
2019-04-06T22:03:24.768Z,12.40
2019-04-06T22:05:54.396Z,12.40
2019-04-06T22:08:23.672Z,12.50
2019-04-06T22:10:53.116Z,12.50
2019-04-06T22:13:22.874Z,12.60
2019-04-06T22:16:11.526Z,12.60
2019-04-06T22:18:40.849Z,12.60
2019-04-06T22:21:10.151Z,12.60
2019-04-06T22:23:43.862Z,12.60
2019-04-06T22:26:11.291Z,12.70
2019-04-06T22:28:40.648Z,12.70
2019-04-06T22:31:10.010Z,12.70
2019-04-06T22:33:39.894Z,12.70
2019-04-06T22:36:09.987Z,12.80
2019-04-06T22:38:39.982Z,12.70
2019-04-06T22:41:09.401Z,12.70
2019-04-06T22:43:38.901Z,12.70
2019-04-06T22:46:08.262Z,12.70
2019-04-06T22:48:37.741Z,12.70
2019-04-06T22:51:06.985Z,12.70
2019-04-06T22:53:36.323Z,12.70
2019-04-06T22:56:05.907Z,12.70
2019-04-06T22:58:35.751Z,12.70
2019-04-06T23:01:10.726Z,12.70
2019-04-06T23:04:02.967Z,12.70
2019-04-06T23:06:44.851Z,12.70
2019-04-06T23:09:14.333Z,12.70
2019-04-06T23:11:44.751Z,12.70
2019-04-06T23:14:14.214Z,12.60
2019-04-06T23:16:45.970Z,12.60
2019-04-06T23:19:15.325Z,12.60
2019-04-06T23:21:44.554Z,12.60
2019-04-06T23:24:13.778Z,12.60
2019-04-06T23:26:43.417Z,12.60
2019-04-06T23:29:12.773Z,12.70
2019-04-06T23:31:41.970Z,12.70
2019-04-06T23:34:11.690Z,12.70
2019-04-06T23:36:40.994Z,12.70
2019-04-06T23:39:10.846Z,12.70
2019-04-06T23:41:40.253Z,12.70
2019-04-06T23:44:09.478Z,12.70
2019-04-06T23:46:38.769Z,12.70
2019-04-06T23:49:08.036Z,12.70
2019-04-06T23:51:37.338Z,12.70
2019-04-06T23:54:07.058Z,12.70
2019-04-06T23:56:36.774Z,12.70
2019-04-06T23:59:06.284Z,12.70
